RPA3520 KCMH-KORD
Flight info
| Callsign | RPA3520 |
|---|---|
| Flight time | N/A |
| Altitude | 34000 |
| Route | PKACZ TARRY FWA WATSN4 |
| Aircraft | E170/M-SDE3GILORVW/S |
Departure
| Time | 2026-04-30 01:20 |
|---|---|
| Airport | John Glenn Columbus International Airport (KCMH) |
Arrival
| Time | N/A |
|---|---|
| Airport | Chicago O'Hare International Airport (KORD) |
| Time | Latitude | Longitude | Altitude | Speed | Heading |
|---|---|---|---|---|---|
| 2026-04-30 00:38 | 39.99755 | -82.88011 | 801 ft | 0 kts | 275° |
| 2026-04-30 01:09 | 39.99754 | -82.88004 | 801 ft | 2 kts | 275° |
| 2026-04-30 01:09 | 39.99753 | -82.87985 | 801 ft | 2 kts | 275° |
| 2026-04-30 01:09 | 39.99752 | -82.87965 | 801 ft | 2 kts | 275° |
| 2026-04-30 01:10 | 39.99751 | -82.87946 | 801 ft | 2 kts | 275° |
| 2026-04-30 01:10 | 39.99750 | -82.87928 | 801 ft | 1 kts | 275° |
| 2026-04-30 01:10 | 39.99750 | -82.87915 | 801 ft | 2 kts | 243° |
| 2026-04-30 01:10 | 39.99761 | -82.87902 | 801 ft | 2 kts | 193° |
| 2026-04-30 01:11 | 39.99767 | -82.87901 | 801 ft | 0 kts | 183° |
| 2026-04-30 01:14 | 39.99766 | -82.87901 | 802 ft | 0 kts | 183° |
| 2026-04-30 01:15 | 39.99762 | -82.87902 | 802 ft | 1 kts | 183° |
| 2026-04-30 01:15 | 39.99753 | -82.87902 | 802 ft | 2 kts | 183° |
| 2026-04-30 01:15 | 39.99737 | -82.87904 | 802 ft | 3 kts | 186° |
| 2026-04-30 01:15 | 39.99711 | -82.87907 | 803 ft | 5 kts | 185° |
| 2026-04-30 01:16 | 39.99674 | -82.87911 | 803 ft | 6 kts | 184° |
| 2026-04-30 01:16 | 39.99624 | -82.87915 | 803 ft | 8 kts | 184° |
| 2026-04-30 01:16 | 39.99593 | -82.87869 | 802 ft | 10 kts | 90° |
| 2026-04-30 01:16 | 39.99580 | -82.87772 | 802 ft | 12 kts | 104° |
| 2026-04-30 01:17 | 39.99568 | -82.87652 | 801 ft | 15 kts | 94° |
| 2026-04-30 01:17 | 39.99559 | -82.87506 | 801 ft | 18 kts | 94° |
| 2026-04-30 01:17 | 39.99552 | -82.87355 | 800 ft | 14 kts | 92° |
| 2026-04-30 01:17 | 39.99494 | -82.87288 | 800 ft | 12 kts | 191° |
| 2026-04-30 01:18 | 39.99409 | -82.87299 | 802 ft | 12 kts | 182° |
| 2026-04-30 01:18 | 39.99325 | -82.87312 | 802 ft | 12 kts | 187° |
| 2026-04-30 01:18 | 39.99239 | -82.87325 | 803 ft | 13 kts | 184° |
| 2026-04-30 01:18 | 39.99174 | -82.87352 | 803 ft | 10 kts | 230° |
| 2026-04-30 01:19 | 39.99168 | -82.87432 | 803 ft | 0 kts | 274° |
| 2026-04-30 01:19 | 39.99169 | -82.87455 | 803 ft | 20 kts | 274° |
| 2026-04-30 01:19 | 39.99201 | -82.88012 | 804 ft | 100 kts | 275° |
| 2026-04-30 01:19 | 39.99267 | -82.89212 | 844 ft | 157 kts | 274° |
| 2026-04-30 01:20 | 39.99266 | -82.90632 | 1503 ft | 160 kts | 271° |
| 2026-04-30 01:20 | 39.99162 | -82.92072 | 2227 ft | 167 kts | 269° |
| 2026-04-30 01:20 | 39.99022 | -82.93578 | 2922 ft | 177 kts | 269° |
| 2026-04-30 01:20 | 39.98894 | -82.95259 | 3450 ft | 198 kts | 268° |
| 2026-04-30 01:21 | 39.98714 | -82.97094 | 4055 ft | 217 kts | 266° |
| 2026-04-30 01:21 | 39.98458 | -82.99144 | 4614 ft | 241 kts | 264° |
| 2026-04-30 01:21 | 39.98160 | -83.01372 | 5263 ft | 260 kts | 264° |
| 2026-04-30 01:21 | 39.98005 | -83.03675 | 6379 ft | 252 kts | 272° |
| 2026-04-30 01:22 | 39.98084 | -83.05910 | 7273 ft | 252 kts | 275° |
| 2026-04-30 01:22 | 39.98183 | -83.08202 | 7958 ft | 260 kts | 274° |
| 2026-04-30 01:22 | 39.98300 | -83.10543 | 8733 ft | 263 kts | 273° |
| 2026-04-30 01:22 | 39.98397 | -83.12895 | 9575 ft | 264 kts | 273° |
| 2026-04-30 01:23 | 39.98526 | -83.15241 | 10444 ft | 262 kts | 274° |
| 2026-04-30 01:23 | 39.98674 | -83.17607 | 11192 ft | 265 kts | 274° |
| 2026-04-30 01:23 | 39.98831 | -83.20013 | 11783 ft | 273 kts | 274° |
| 2026-04-30 01:23 | 39.98997 | -83.22503 | 12300 ft | 283 kts | 274° |
| 2026-04-30 01:24 | 39.99172 | -83.25063 | 12917 ft | 288 kts | 274° |
| 2026-04-30 01:24 | 39.99358 | -83.27653 | 13597 ft | 290 kts | 275° |
| 2026-04-30 01:24 | 39.99548 | -83.30243 | 14344 ft | 290 kts | 274° |
| 2026-04-30 01:24 | 39.99736 | -83.32836 | 15073 ft | 290 kts | 275° |
| 2026-04-30 01:25 | 39.99925 | -83.35449 | 15786 ft | 290 kts | 275° |
| 2026-04-30 01:25 | 40.00111 | -83.38052 | 16440 ft | 291 kts | 275° |
| 2026-04-30 01:25 | 40.00295 | -83.40658 | 17119 ft | 291 kts | 275° |
| 2026-04-30 01:25 | 40.00481 | -83.43265 | 17757 ft | 292 kts | 275° |
| 2026-04-30 01:26 | 40.00669 | -83.45884 | 18386 ft | 292 kts | 275° |
| 2026-04-30 01:26 | 40.01171 | -83.48438 | 18916 ft | 301 kts | 295° |
| 2026-04-30 01:26 | 40.02640 | -83.50455 | 19434 ft | 319 kts | 314° |
| 2026-04-30 01:26 | 40.04270 | -83.52388 | 19988 ft | 315 kts | 307° |
| 2026-04-30 01:27 | 40.05712 | -83.54514 | 20555 ft | 315 kts | 303° |
| 2026-04-30 01:27 | 40.07080 | -83.56731 | 21100 ft | 316 kts | 302° |
| 2026-04-30 01:27 | 40.08419 | -83.58993 | 21649 ft | 317 kts | 301° |
| 2026-04-30 01:27 | 40.09751 | -83.61284 | 22189 ft | 319 kts | 301° |
| 2026-04-30 01:28 | 40.11089 | -83.63603 | 22707 ft | 321 kts | 301° |
| 2026-04-30 01:28 | 40.12424 | -83.65929 | 23229 ft | 323 kts | 301° |
| 2026-04-30 01:28 | 40.13778 | -83.68290 | 23768 ft | 324 kts | 301° |
| 2026-04-30 01:28 | 40.15128 | -83.70648 | 24273 ft | 327 kts | 301° |
| 2026-04-30 01:29 | 40.16371 | -83.72822 | 24749 ft | 328 kts | 300° |
| 2026-04-30 01:29 | 40.17734 | -83.75206 | 25270 ft | 329 kts | 300° |
| 2026-04-30 01:29 | 40.19101 | -83.77598 | 25758 ft | 331 kts | 300° |
| 2026-04-30 01:29 | 40.20147 | -83.79433 | 26093 ft | 333 kts | 300° |
| 2026-04-30 01:30 | 40.21561 | -83.81912 | 26544 ft | 336 kts | 300° |
| 2026-04-30 01:30 | 40.22969 | -83.84382 | 27016 ft | 337 kts | 300° |
| 2026-04-30 01:30 | 40.24382 | -83.86864 | 27465 ft | 339 kts | 300° |
| 2026-04-30 01:30 | 40.25750 | -83.89268 | 27910 ft | 340 kts | 300° |
| 2026-04-30 01:31 | 40.27163 | -83.91754 | 28340 ft | 342 kts | 300° |
| 2026-04-30 01:31 | 40.28592 | -83.94270 | 28763 ft | 344 kts | 300° |
| 2026-04-30 01:31 | 40.29743 | -83.96296 | 29126 ft | 344 kts | 300° |
| 2026-04-30 01:31 | 40.31177 | -83.98825 | 29586 ft | 344 kts | 300° |
| 2026-04-30 01:32 | 40.32619 | -84.01368 | 29976 ft | 346 kts | 300° |
| 2026-04-30 01:32 | 40.34074 | -84.03939 | 30341 ft | 349 kts | 300° |
| 2026-04-30 01:32 | 40.35532 | -84.06515 | 30656 ft | 351 kts | 300° |
| 2026-04-30 01:32 | 40.36991 | -84.09096 | 30906 ft | 355 kts | 300° |
| 2026-04-30 01:33 | 40.38480 | -84.11734 | 31145 ft | 359 kts | 300° |
| 2026-04-30 01:33 | 40.39931 | -84.14304 | 31422 ft | 361 kts | 300° |
| 2026-04-30 01:33 | 40.42533 | -84.18919 | 31882 ft | 366 kts | 300° |